createdAt,value
2017-04-09T08:59:25.926Z,19.00
2017-04-09T09:00:37.179Z,19.00
2017-04-09T09:01:35.565Z,19.10
2017-04-09T09:02:33.938Z,19.20
2017-04-09T09:03:32.294Z,19.20
2017-04-09T09:04:30.637Z,19.20
2017-04-09T09:05:29.085Z,19.00
2017-04-09T09:06:28.178Z,19.00
2017-04-09T09:07:26.553Z,19.10
2017-04-09T09:08:25.153Z,19.30
2017-04-09T09:09:23.638Z,19.20
2017-04-09T09:10:22.156Z,18.90
2017-04-09T09:11:21.041Z,18.70
2017-04-09T09:12:19.439Z,18.50
2017-04-09T09:13:17.764Z,18.60
2017-04-09T09:14:16.073Z,18.60
2017-04-09T09:15:14.424Z,18.60
2017-04-09T09:16:12.739Z,18.70
2017-04-09T09:17:11.078Z,18.70
2017-04-09T09:18:09.423Z,18.70
2017-04-09T09:19:07.939Z,18.80
2017-04-09T09:20:06.552Z,18.70
2017-04-09T09:21:04.892Z,18.60
2017-04-09T09:22:03.264Z,18.70
2017-04-09T09:23:01.623Z,18.80
2017-04-09T09:23:59.954Z,18.90
2017-04-09T09:24:58.332Z,18.80
2017-04-09T09:25:56.919Z,18.80
2017-04-09T09:26:55.273Z,18.90
2017-04-09T09:27:53.673Z,18.90
2017-04-09T09:28:52.079Z,18.90
2017-04-09T09:29:50.399Z,19.00
2017-04-09T09:30:48.710Z,19.10
2017-04-09T09:31:47.109Z,19.10
2017-04-09T09:32:45.539Z,19.10
2017-04-09T09:33:43.897Z,19.20
2017-04-09T09:34:42.317Z,19.20
2017-04-09T09:35:40.640Z,19.20
2017-04-09T09:36:39.171Z,19.20
2017-04-09T09:37:37.681Z,19.30
2017-04-09T09:38:36.059Z,19.40
2017-04-09T09:39:35.169Z,19.30
2017-04-09T09:40:34.298Z,19.30
2017-04-09T09:41:32.653Z,19.30
2017-04-09T09:42:30.991Z,19.30
2017-04-09T09:43:29.443Z,19.40
2017-04-09T09:44:28.590Z,19.40
2017-04-09T09:45:27.010Z,19.30
2017-04-09T09:46:26.125Z,19.40
2017-04-09T09:47:24.558Z,19.40
2017-04-09T09:48:23.678Z,19.30
2017-04-09T09:49:22.131Z,19.20
2017-04-09T09:50:20.470Z,19.40
2017-04-09T09:51:18.777Z,19.50
2017-04-09T09:52:17.107Z,19.50
2017-04-09T09:53:16.243Z,19.60
2017-04-09T09:54:15.033Z,19.50
2017-04-09T09:55:13.500Z,19.40
2017-04-09T09:56:11.831Z,19.20
2017-04-09T09:57:10.291Z,19.10
2017-04-09T09:58:08.679Z,19.00
2017-04-09T09:59:07.037Z,18.90
2017-04-09T10:00:05.601Z,18.80
2017-04-09T10:01:03.978Z,18.70
2017-04-09T10:02:02.671Z,18.70
2017-04-09T10:03:00.968Z,18.70
2017-04-09T10:03:59.269Z,18.80
2017-04-09T10:04:57.582Z,18.90
2017-04-09T10:05:56.269Z,19.00
2017-04-09T10:06:54.930Z,19.10
2017-04-09T10:07:53.276Z,19.20
2017-04-09T10:08:51.582Z,19.30
2017-04-09T10:09:49.915Z,19.30
2017-04-09T10:10:48.252Z,19.30
2017-04-09T10:11:46.598Z,19.30
2017-04-09T10:12:45.001Z,19.50
2017-04-09T10:13:43.355Z,19.60
2017-04-09T10:14:41.678Z,19.70
2017-04-09T10:15:40.019Z,19.70
2017-04-09T10:16:38.367Z,19.80
2017-04-09T10:17:36.692Z,19.90
2017-04-09T10:18:35.107Z,20.00
2017-04-09T10:19:33.431Z,20.10
2017-04-09T10:20:31.789Z,20.20
2017-04-09T10:21:30.279Z,20.30
2017-04-09T10:22:28.802Z,20.30
2017-04-09T10:23:27.172Z,20.40
2017-04-09T10:24:25.603Z,20.60
2017-04-09T10:25:23.938Z,20.70
2017-04-09T10:26:22.266Z,20.80
2017-04-09T10:27:21.393Z,20.90
2017-04-09T10:28:19.801Z,20.80
2017-04-09T10:29:18.871Z,21.00
2017-04-09T10:30:17.309Z,21.00
2017-04-09T10:31:15.629Z,21.00
2017-04-09T10:32:13.918Z,21.00
2017-04-09T10:33:12.271Z,21.00
2017-04-09T10:34:11.387Z,20.90
2017-04-09T10:35:09.692Z,20.80
2017-04-09T10:36:08.200Z,20.90
2017-04-09T10:37:06.521Z,20.90
2017-04-09T10:38:04.839Z,20.90
2017-04-09T10:39:03.150Z,21.00
2017-04-09T10:40:01.479Z,21.10
2017-04-09T10:40:59.959Z,21.10
2017-04-09T10:41:58.642Z,21.10
2017-04-09T10:42:57.090Z,21.20
2017-04-09T10:43:55.467Z,21.10
2017-04-09T10:44:53.799Z,21.10
2017-04-09T10:45:52.902Z,20.80
2017-04-09T10:46:51.277Z,20.80
2017-04-09T10:47:49.678Z,20.60
2017-04-09T10:48:47.998Z,20.60
2017-04-09T10:49:46.318Z,20.60
2017-04-09T10:50:44.625Z,20.70
2017-04-09T10:51:42.969Z,20.80
2017-04-09T10:52:41.299Z,20.90
2017-04-09T10:53:39.702Z,21.00
2017-04-09T10:54:38.005Z,21.10
2017-04-09T10:55:37.139Z,21.20
2017-04-09T10:56:35.627Z,21.20
2017-04-09T10:57:34.017Z,21.30
2017-04-09T10:58:33.095Z,21.30
2017-04-09T10:59:31.476Z,21.20
2017-04-09T11:00:29.793Z,21.30
2017-04-09T11:01:28.125Z,21.40
2017-04-09T11:02:26.446Z,21.50
2017-04-09T11:03:24.754Z,21.60
2017-04-09T11:04:23.068Z,21.70
2017-04-09T11:05:22.105Z,21.80
2017-04-09T11:06:20.419Z,21.70
2017-04-09T11:07:18.764Z,21.80
2017-04-09T11:08:17.071Z,21.90
2017-04-09T11:09:15.382Z,21.90
2017-04-09T11:10:13.731Z,22.00
2017-04-09T11:11:12.244Z,22.00
2017-04-09T11:12:10.573Z,22.00
2017-04-09T11:13:08.983Z,22.00
2017-04-09T11:14:07.316Z,22.10
2017-04-09T11:15:05.685Z,22.10
2017-04-09T11:16:03.986Z,22.20
2017-04-09T11:17:03.278Z,22.20
2017-04-09T11:18:01.570Z,22.20
2017-04-09T11:19:00.135Z,22.20
2017-04-09T11:19:58.523Z,22.30
2017-04-09T11:20:57.618Z,22.30
2017-04-09T11:21:56.241Z,22.20
2017-04-09T11:22:55.531Z,22.30
2017-04-09T11:23:54.750Z,22.40
2017-04-09T11:24:54.579Z,22.50
2017-04-09T11:25:53.653Z,22.60
2017-04-09T11:26:51.958Z,22.50
2017-04-09T11:27:50.267Z,22.60
2017-04-09T11:28:48.783Z,22.60
2017-04-09T11:29:47.102Z,22.70
2017-04-09T11:30:45.418Z,22.70
2017-04-09T11:31:43.729Z,22.70
2017-04-09T11:32:43.562Z,22.70
2017-04-09T11:33:42.722Z,22.80
2017-04-09T11:35:44.932Z,22.80
2017-04-09T11:36:44.175Z,23.00
2017-04-09T11:37:42.628Z,23.00
2017-04-09T11:38:41.119Z,23.10
2017-04-09T11:39:39.562Z,23.10
2017-04-09T11:40:38.287Z,23.10
2017-04-09T11:41:38.350Z,23.40
2017-04-09T11:42:36.818Z,23.30
2017-04-09T11:43:35.143Z,23.50
2017-04-09T11:44:34.373Z,23.50
2017-04-09T11:45:32.741Z,23.50
2017-04-09T11:46:31.136Z,23.60
2017-04-09T11:47:29.509Z,23.60
2017-04-09T11:48:29.367Z,23.50
2017-04-09T11:49:27.745Z,23.50
2017-04-09T11:50:26.054Z,23.50
2017-04-09T11:51:24.367Z,23.40
2017-04-09T11:52:22.747Z,23.50
2017-04-09T11:53:21.447Z,23.50
2017-04-09T11:54:19.757Z,23.50
2017-04-09T11:55:18.085Z,23.70
2017-04-09T11:56:16.454Z,23.70
2017-04-09T11:57:14.767Z,23.80
2017-04-09T11:58:13.069Z,23.90
2017-04-09T11:59:11.467Z,23.90
2017-04-09T12:00:09.762Z,24.00
2017-04-09T12:01:08.070Z,24.10
2017-04-09T12:02:06.380Z,24.10
2017-04-09T12:03:04.770Z,24.20
2017-04-09T12:04:03.092Z,24.20
2017-04-09T12:05:01.466Z,24.30
2017-04-09T12:05:59.770Z,24.40
2017-04-09T12:06:58.063Z,24.40
2017-04-09T12:07:56.377Z,24.50
2017-04-09T12:08:54.690Z,24.60
2017-04-09T12:09:52.994Z,24.70
2017-04-09T12:10:52.327Z,24.70
2017-04-09T12:11:51.405Z,24.70
2017-04-09T12:12:49.712Z,24.80
2017-04-09T12:13:48.016Z,24.70
2017-04-09T12:14:46.449Z,24.60
2017-04-09T12:15:44.745Z,24.60
2017-04-09T12:16:43.138Z,24.50
2017-04-09T12:17:41.434Z,24.60
2017-04-09T12:18:40.763Z,24.70
2017-04-09T12:19:39.074Z,24.70
2017-04-09T12:20:37.388Z,24.80
2017-04-09T12:21:35.779Z,24.80
2017-04-09T12:22:34.268Z,24.90
2017-04-09T12:23:32.574Z,24.90
2017-04-09T12:24:30.906Z,25.00
2017-04-09T12:25:33.311Z,25.00
2017-04-09T12:26:31.608Z,25.00
2017-04-09T12:27:29.890Z,25.00
2017-04-09T12:28:28.291Z,25.00
2017-04-09T12:29:26.589Z,25.00
2017-04-09T12:30:24.894Z,25.10
2017-04-09T12:31:23.185Z,25.10
2017-04-09T12:32:21.481Z,25.20
2017-04-09T12:33:19.781Z,25.30
2017-04-09T12:34:19.543Z,25.40
2017-04-09T12:35:17.883Z,25.40
2017-04-09T12:36:16.271Z,25.40
2017-04-09T12:37:14.558Z,25.40
2017-04-09T12:38:12.899Z,25.30
2017-04-09T12:39:11.197Z,25.20
2017-04-09T12:40:09.590Z,25.20
2017-04-09T12:41:07.903Z,25.30
2017-04-09T12:42:06.213Z,25.30
2017-04-09T12:43:04.513Z,25.40
2017-04-09T12:44:02.885Z,25.40
2017-04-09T12:45:01.243Z,25.40
2017-04-09T12:45:59.642Z,25.40
2017-04-09T12:46:57.938Z,25.40
2017-04-09T12:47:56.235Z,25.30
2017-04-09T12:48:54.522Z,25.30
2017-04-09T12:49:52.839Z,25.30
2017-04-09T12:50:51.150Z,25.30
2017-04-09T12:51:49.542Z,25.10
2017-04-09T12:52:47.874Z,25.10
2017-04-09T12:53:46.186Z,25.20
2017-04-09T12:54:44.482Z,25.30
2017-04-09T12:55:42.787Z,25.40
2017-04-09T12:56:41.151Z,25.50
2017-04-09T12:57:39.660Z,25.50
2017-04-09T12:58:39.489Z,25.50
2017-04-09T12:59:37.853Z,25.50
2017-04-09T13:01:35.582Z,25.60
2017-04-09T13:02:34.363Z,25.70
2017-04-09T13:03:33.636Z,25.60
2017-04-09T13:04:32.046Z,25.60
2017-04-09T13:05:30.335Z,25.50
2017-04-09T13:06:28.649Z,25.50
2017-04-09T13:07:26.928Z,25.50
2017-04-09T13:08:25.226Z,25.60
2017-04-09T13:09:23.627Z,25.60
2017-04-09T13:10:21.949Z,25.70
2017-04-09T13:11:20.241Z,25.60
2017-04-09T13:12:18.550Z,25.70
2017-04-09T13:13:16.910Z,25.60
2017-04-09T13:14:15.199Z,25.50
2017-04-09T13:15:13.666Z,25.50
2017-04-09T13:16:12.001Z,25.60
2017-04-09T13:17:10.335Z,25.60
2017-04-09T13:18:08.630Z,25.70
2017-04-09T13:19:06.910Z,25.80
2017-04-09T13:20:05.195Z,25.90
2017-04-09T13:21:04.289Z,25.90
2017-04-09T13:22:02.594Z,25.90
2017-04-09T13:23:00.881Z,25.90
2017-04-09T13:23:59.205Z,25.90
2017-04-09T13:24:57.526Z,25.90
2017-04-09T13:25:55.877Z,25.90
2017-04-09T13:26:54.252Z,25.80
2017-04-09T13:27:52.638Z,25.70
2017-04-09T13:28:50.978Z,25.60
2017-04-09T13:29:49.278Z,25.50
2017-04-09T13:30:47.596Z,25.50
2017-04-09T13:31:45.918Z,25.60
2017-04-09T13:32:44.307Z,25.60
2017-04-09T13:33:42.678Z,25.70
2017-04-09T13:34:40.999Z,25.90
2017-04-09T13:35:39.293Z,26.00
2017-04-09T13:36:37.595Z,26.10
2017-04-09T13:37:35.905Z,26.10
2017-04-09T13:38:34.305Z,26.20
2017-04-09T13:39:32.616Z,26.20
2017-04-09T13:40:30.950Z,26.30
2017-04-09T13:41:29.234Z,26.30
2017-04-09T13:42:27.538Z,26.20
2017-04-09T13:43:25.842Z,26.20
2017-04-09T13:44:24.202Z,26.30
2017-04-09T13:45:22.501Z,26.30
2017-04-09T13:46:20.809Z,26.40
2017-04-09T13:47:19.118Z,26.50
2017-04-09T13:48:17.421Z,26.60
2017-04-09T13:49:15.717Z,26.70
2017-04-09T13:50:14.618Z,26.60
2017-04-09T13:51:12.925Z,26.60
2017-04-09T13:52:11.229Z,26.50
2017-04-09T13:53:09.539Z,26.50
2017-04-09T13:54:07.843Z,26.40
2017-04-09T13:55:06.147Z,26.20
2017-04-09T13:56:04.555Z,26.10
2017-04-09T13:57:02.959Z,26.00
2017-04-09T13:58:01.331Z,26.00
2017-04-09T13:58:59.623Z,26.00
2017-04-09T13:59:57.966Z,26.00
2017-04-09T14:00:56.293Z,26.00
2017-04-09T14:01:54.660Z,26.00
2017-04-09T14:02:52.966Z,26.00
2017-04-09T14:03:51.278Z,26.10
2017-04-09T14:04:49.571Z,26.10
2017-04-09T14:05:47.858Z,26.00
2017-04-09T14:06:46.350Z,26.00
2017-04-09T14:07:44.735Z,25.90
2017-04-09T14:08:43.118Z,25.90
2017-04-09T14:09:41.483Z,26.00
2017-04-09T14:10:39.802Z,26.00
2017-04-09T14:11:38.130Z,26.20
2017-04-09T14:12:36.458Z,26.10
2017-04-09T14:13:34.831Z,26.20
2017-04-09T14:14:33.182Z,26.20
2017-04-09T14:15:31.464Z,26.10
2017-04-09T14:16:29.808Z,26.10
2017-04-09T14:17:28.130Z,26.00
2017-04-09T14:18:26.458Z,26.00
2017-04-09T14:19:24.899Z,26.00
2017-04-09T14:20:23.222Z,25.90
2017-04-09T14:21:21.526Z,26.00
2017-04-09T14:22:19.816Z,26.00
2017-04-09T14:23:18.147Z,26.00
2017-04-09T14:24:16.503Z,26.00
2017-04-09T14:25:14.901Z,26.00
2017-04-09T14:26:13.426Z,26.00
2017-04-09T14:27:11.715Z,26.10
2017-04-09T14:28:10.052Z,26.00
2017-04-09T14:29:08.415Z,26.00
2017-04-09T14:30:06.738Z,26.00
2017-04-09T14:31:05.253Z,26.00
2017-04-09T14:32:04.375Z,26.10
2017-04-09T14:33:04.252Z,26.20
2017-04-09T14:34:03.349Z,26.30
2017-04-09T14:35:02.558Z,26.30
2017-04-09T14:36:00.930Z,26.30
2017-04-09T14:36:59.363Z,26.30
2017-04-09T14:37:57.706Z,26.30
2017-04-09T14:38:56.046Z,26.30
2017-04-09T14:39:54.377Z,26.20
2017-04-09T14:40:52.745Z,26.10
2017-04-09T14:41:51.142Z,26.10
2017-04-09T14:42:49.583Z,26.20
2017-04-09T14:43:48.862Z,26.20
2017-04-09T14:44:47.169Z,26.20
2017-04-09T17:26:29.198Z,21.50
2017-04-09T17:27:27.509Z,21.40
2017-04-09T17:28:25.857Z,21.40
2017-04-09T17:29:24.190Z,21.30
2017-04-09T17:30:22.522Z,21.30
2017-04-09T17:31:21.627Z,21.10
2017-04-09T17:32:19.958Z,21.10
2017-04-09T17:33:18.286Z,21.10
2017-04-09T17:34:17.426Z,20.90
2017-04-09T17:35:15.781Z,20.90
2017-04-09T17:36:14.190Z,20.80
2017-04-09T17:37:12.547Z,20.70
2017-04-09T17:38:10.869Z,20.70
2017-04-09T17:39:09.238Z,20.60
2017-04-09T17:40:08.345Z,20.50
2017-04-09T17:41:06.658Z,20.50
2017-04-09T17:42:05.748Z,20.30
2017-04-09T17:43:05.592Z,20.20
2017-04-09T17:44:03.923Z,20.20
2017-04-09T17:45:03.127Z,20.20
2017-04-09T17:46:01.446Z,20.10
2017-04-09T17:46:59.786Z,20.10
2017-04-09T17:47:58.155Z,20.00
2017-04-09T17:48:58.023Z,19.90
2017-04-09T17:49:57.843Z,19.90
2017-04-09T17:50:56.189Z,19.90
2017-04-09T17:51:55.258Z,19.80
2017-04-09T17:52:55.077Z,19.70
2017-04-09T17:53:54.173Z,19.70
2017-04-09T17:54:53.294Z,19.70
2017-04-09T17:55:51.618Z,19.60
2017-04-09T17:56:50.697Z,19.50
2017-04-09T18:09:54.512Z,19.10
2017-04-09T18:10:53.093Z,19.10
2017-04-09T18:11:51.590Z,19.30
2017-04-09T18:12:50.175Z,19.40
2017-04-09T18:13:48.588Z,19.40
2017-04-09T18:14:46.972Z,19.40
2017-04-09T18:15:45.508Z,19.30
2017-04-09T18:16:44.051Z,19.20
2017-04-09T18:17:42.486Z,19.00
2017-04-09T18:18:40.973Z,18.90
2017-04-09T18:19:39.629Z,18.80
2017-04-09T18:20:38.066Z,18.70
2017-04-09T18:21:38.945Z,18.50
2017-04-09T18:22:37.440Z,18.40
2017-04-09T18:23:36.780Z,18.30
2017-04-09T18:24:35.135Z,18.20
2017-04-09T18:25:33.536Z,18.10
2017-04-09T18:26:32.718Z,18.00
2017-04-09T18:27:31.063Z,17.90
2017-04-09T18:28:29.392Z,17.80
2017-04-09T18:29:27.730Z,17.70
2017-04-09T18:30:26.038Z,17.60
2017-04-09T18:31:24.429Z,17.50
2017-04-09T18:32:23.354Z,17.40
2017-04-09T18:33:21.965Z,17.30
2017-04-09T18:34:20.415Z,17.20
2017-04-09T18:35:18.791Z,17.20
2017-04-09T18:36:17.129Z,17.10
2017-04-09T18:37:16.217Z,17.00
2017-04-09T18:38:14.535Z,17.00
2017-04-09T18:39:12.890Z,16.90
2017-04-09T18:40:11.250Z,16.90
2017-04-09T18:41:09.579Z,16.80
2017-04-09T18:42:07.921Z,16.70
2017-04-09T18:43:06.355Z,16.70
2017-04-09T18:44:04.652Z,16.60
2017-04-09T18:45:02.972Z,16.50
2017-04-09T18:46:01.301Z,16.50
2017-04-09T18:46:59.622Z,16.40
2017-04-09T18:47:57.930Z,16.30
2017-04-09T18:48:56.446Z,16.30
2017-04-09T18:49:54.778Z,16.20
2017-04-09T18:50:53.113Z,16.20
2017-04-09T18:51:51.435Z,16.10
2017-04-09T18:52:49.745Z,16.10
2017-04-09T18:53:48.058Z,16.00
2017-04-09T18:54:46.803Z,16.00
2017-04-09T18:55:45.117Z,16.00
2017-04-09T18:56:43.511Z,15.90
2017-04-09T18:57:41.825Z,15.80
2017-04-09T18:58:40.794Z,15.90
2017-04-09T18:59:39.109Z,15.80
2017-04-09T19:00:37.441Z,15.70
2017-04-09T19:01:35.758Z,15.70
2017-04-09T19:02:34.183Z,15.60
2017-04-09T19:03:32.527Z,15.60
2017-04-09T19:04:30.840Z,15.50
2017-04-09T19:05:29.166Z,15.50
2017-04-09T19:06:27.491Z,15.40
2017-04-09T19:07:25.799Z,15.40
2017-04-09T19:08:24.178Z,15.40
2017-04-09T19:09:22.591Z,15.30
2017-04-09T19:10:21.024Z,15.30
2017-04-09T19:11:19.386Z,15.20
2017-04-09T19:12:17.715Z,15.20
2017-04-09T19:13:16.071Z,15.20
2017-04-09T19:14:14.507Z,15.10
2017-04-09T19:15:12.867Z,15.10
2017-04-09T19:16:11.179Z,15.00
2017-04-09T19:17:09.493Z,15.00
2017-04-09T19:18:07.846Z,15.00
2017-04-09T19:19:06.193Z,15.00
2017-04-09T19:20:04.603Z,14.90
2017-04-09T19:21:02.966Z,14.90
2017-04-09T19:22:01.335Z,14.90
2017-04-09T19:22:59.650Z,14.80
2017-04-09T19:23:57.975Z,14.80
2017-04-09T19:24:56.282Z,14.80
2017-04-09T19:25:54.713Z,14.70
2017-04-09T19:26:53.044Z,14.70
2017-04-09T19:37:31.549Z,14.70
2017-04-09T19:38:29.944Z,14.30
2017-04-09T19:39:28.335Z,14.20
2017-04-09T19:40:26.677Z,14.20
2017-04-09T19:41:25.234Z,14.20
2017-04-09T19:42:23.585Z,14.20
2017-04-09T19:43:22.015Z,14.10
2017-04-09T19:44:20.351Z,14.10
2017-04-09T19:45:18.754Z,14.10
2017-04-09T19:46:17.150Z,14.10
2017-04-09T19:47:15.469Z,14.00
2017-04-09T19:48:13.786Z,14.00
2017-04-09T19:49:12.203Z,14.00
2017-04-09T19:50:10.767Z,13.90
2017-04-09T19:51:09.484Z,13.90
2017-04-09T19:52:07.868Z,13.90
2017-04-09T19:53:06.223Z,13.90
2017-04-09T19:54:04.595Z,13.90
2017-04-09T19:55:03.030Z,13.80
2017-04-09T19:56:01.345Z,13.90
2017-04-09T19:56:59.665Z,13.80
2017-04-09T19:57:58.470Z,13.80
2017-04-09T19:58:56.894Z,13.70
2017-04-09T19:59:55.697Z,13.70
2017-04-09T20:00:54.308Z,13.70
2017-04-09T20:01:52.630Z,13.70
2017-04-09T20:02:51.346Z,13.60
2017-04-09T20:03:49.710Z,13.60
2017-04-09T20:04:48.034Z,13.60
2017-04-09T20:05:46.398Z,13.60
2017-04-09T20:06:44.795Z,13.50
2017-04-09T20:07:43.112Z,13.50
2017-04-09T20:08:41.439Z,13.50
2017-04-09T20:09:39.764Z,13.50
2017-04-09T20:10:38.089Z,13.40
2017-04-09T20:11:36.574Z,13.50
2017-04-09T20:12:34.978Z,13.40
2017-04-09T20:13:33.300Z,13.30
2017-04-09T20:14:31.615Z,13.30
2017-04-09T20:15:29.956Z,13.30
2017-04-09T20:16:28.262Z,13.20
2017-04-09T20:17:26.635Z,13.20
2017-04-09T20:18:25.021Z,13.20
2017-04-09T20:19:23.341Z,13.20
2017-04-09T20:20:21.918Z,13.20
2017-04-09T20:21:20.241Z,13.10
2017-04-09T20:22:18.588Z,13.00
2017-04-09T20:23:16.963Z,13.00
2017-04-09T20:24:15.353Z,13.00
2017-04-09T20:25:13.659Z,13.00
2017-04-09T20:26:11.989Z,13.00
2017-04-09T20:27:10.302Z,13.00
2017-04-09T20:28:08.646Z,13.00
2017-04-09T20:29:06.974Z,12.90
2017-04-09T20:30:05.358Z,12.90
2017-04-09T20:31:03.686Z,12.90
2017-04-09T20:32:01.997Z,12.80
2017-04-09T20:33:00.404Z,12.80
2017-04-09T20:33:58.710Z,12.80
2017-04-09T20:34:57.043Z,12.80
2017-04-09T20:35:55.455Z,12.70
2017-04-09T20:36:53.886Z,12.70
2017-04-09T20:37:52.287Z,12.70
2017-04-09T20:38:51.235Z,12.70
2017-04-09T20:39:49.603Z,12.70
2017-04-09T20:40:47.926Z,12.70
2017-04-09T20:41:46.319Z,12.70
2017-04-09T20:42:44.618Z,12.70
2017-04-09T20:43:42.990Z,12.60
2017-04-09T20:44:41.302Z,12.60
2017-04-09T20:45:39.656Z,12.60
2017-04-09T20:46:37.934Z,12.60
2017-04-09T20:47:36.347Z,12.50
2017-04-09T20:48:34.706Z,12.50
2017-04-09T20:49:33.029Z,12.50
2017-04-09T20:50:31.341Z,12.50
2017-04-09T20:51:29.693Z,12.40
2017-04-09T20:52:28.777Z,12.40
2017-04-09T20:53:27.198Z,12.30
2017-04-09T20:54:25.607Z,12.30
2017-04-09T20:55:23.938Z,12.30
2017-04-09T20:56:22.540Z,12.30
2017-04-09T20:57:20.833Z,12.30
2017-04-09T20:58:19.158Z,12.30
2017-04-09T20:59:17.593Z,12.30
2017-04-09T21:00:15.895Z,12.30
2017-04-09T21:01:14.217Z,12.20
2017-04-09T21:02:12.536Z,12.20
2017-04-09T21:03:10.843Z,12.20
2017-04-09T21:04:09.181Z,12.20
2017-04-09T21:05:07.617Z,12.20
2017-04-09T21:06:05.956Z,12.10
2017-04-09T21:07:04.294Z,12.10
2017-04-09T21:08:02.620Z,12.10
2017-04-09T21:09:00.967Z,12.10
2017-04-09T21:09:59.284Z,12.10
2017-04-09T21:10:57.686Z,12.10
2017-04-09T21:11:56.017Z,12.10
2017-04-09T21:12:54.350Z,12.00
2017-04-09T21:13:52.650Z,12.10
2017-04-09T21:14:50.959Z,12.00
2017-04-09T21:15:49.277Z,12.10
2017-04-09T21:16:47.676Z,12.00
2017-04-09T21:17:45.999Z,12.10
2017-04-09T21:18:44.309Z,12.10
2017-04-09T21:19:42.630Z,12.10
2017-04-09T21:20:40.929Z,12.10
2017-04-09T21:21:39.259Z,12.10
2017-04-09T21:22:37.653Z,12.10
2017-04-09T21:23:36.374Z,12.10
2017-04-09T21:24:34.722Z,12.20
2017-04-09T21:25:33.051Z,12.20
2017-04-09T21:26:31.353Z,12.20
2017-04-09T21:27:29.692Z,12.20
2017-04-09T21:28:28.070Z,12.20
2017-04-09T21:29:26.368Z,12.30
2017-04-09T21:30:24.691Z,12.30
2017-04-09T21:31:22.995Z,12.30
2017-04-09T21:32:21.388Z,12.30
2017-04-09T21:33:19.777Z,12.30
2017-04-09T21:34:18.191Z,12.30
2017-04-09T21:35:16.494Z,12.30
2017-04-09T21:36:14.810Z,12.30
2017-04-09T21:37:13.203Z,12.30
2017-04-09T21:38:11.515Z,12.40
2017-04-09T21:39:09.900Z,12.40
2017-04-09T21:40:08.408Z,12.40
2017-04-09T21:41:06.837Z,12.40
2017-04-09T21:42:05.178Z,12.40
2017-04-09T21:43:03.506Z,12.50
2017-04-09T21:44:01.825Z,12.50
2017-04-09T21:45:00.154Z,12.50
2017-04-09T21:45:58.552Z,12.50
2017-04-09T21:46:56.859Z,12.50
2017-04-09T21:47:55.402Z,12.50
2017-04-09T21:48:53.730Z,12.50
2017-04-09T21:49:52.059Z,12.50
2017-04-09T21:50:50.366Z,12.40
2017-04-09T21:51:48.768Z,12.40
2017-04-09T21:52:47.106Z,12.40
2017-04-09T21:53:45.414Z,12.40
2017-04-09T21:54:43.723Z,12.30
2017-04-09T21:55:42.027Z,12.30
2017-04-09T21:56:40.354Z,12.30
2017-04-09T21:57:38.785Z,12.30
2017-04-09T21:58:37.094Z,12.40
2017-04-09T21:59:35.391Z,12.40
2017-04-09T22:00:33.719Z,12.30
2017-04-09T22:01:32.044Z,12.40
2017-04-09T22:02:30.389Z,12.40
2017-04-09T22:03:28.786Z,12.40
2017-04-09T22:04:27.114Z,12.40
2017-04-09T22:05:25.435Z,12.40
2017-04-09T22:06:23.793Z,12.40
2017-04-09T22:07:22.132Z,12.40
2017-04-09T22:08:20.468Z,12.40
2017-04-09T22:09:18.915Z,12.40
2017-04-09T22:10:17.228Z,12.40
2017-04-09T22:11:15.547Z,12.40
2017-04-09T22:12:13.877Z,12.40
2017-04-09T22:13:12.185Z,12.40
2017-04-09T22:14:12.951Z,12.40
2017-04-09T22:15:11.321Z,12.40
2017-04-09T22:16:09.638Z,12.30
2017-04-09T22:17:07.943Z,12.30
2017-04-09T22:18:06.349Z,12.30
2017-04-09T22:19:04.722Z,12.30
2017-04-09T22:20:03.018Z,12.30
2017-04-09T22:21:01.402Z,12.30
2017-04-09T22:21:59.701Z,12.30
2017-04-09T22:22:58.006Z,12.30
2017-04-09T22:23:56.320Z,12.30
2017-04-09T22:24:54.642Z,12.30
2017-04-09T22:25:53.006Z,12.30
2017-04-09T22:26:51.410Z,12.30
2017-04-09T22:27:49.788Z,12.30
2017-04-09T22:28:48.111Z,12.30
2017-04-09T22:29:46.417Z,12.20
2017-04-09T22:30:44.775Z,12.20
2017-04-09T22:31:43.396Z,12.20
2017-04-09T22:32:41.706Z,12.10
2017-04-09T22:33:40.015Z,12.10
2017-04-09T22:34:38.387Z,12.10
2017-04-09T22:35:36.707Z,12.10
2017-04-09T22:36:35.001Z,12.10
2017-04-09T22:37:33.563Z,12.00
2017-04-09T22:38:31.924Z,12.00
2017-04-09T22:39:30.315Z,12.00
2017-04-09T22:40:28.629Z,12.00
2017-04-09T22:41:26.953Z,12.00
2017-04-09T22:42:25.288Z,12.00
2017-04-09T22:43:23.685Z,12.00
2017-04-09T22:44:21.983Z,12.00
2017-04-09T22:45:20.280Z,12.00
2017-04-09T22:46:18.584Z,11.90
2017-04-09T22:47:16.904Z,12.00
2017-04-09T22:48:15.233Z,12.00
2017-04-09T22:49:13.634Z,12.00
2017-04-09T22:50:12.002Z,12.00
2017-04-09T22:51:10.374Z,12.00
2017-04-09T22:52:08.694Z,11.90
2017-04-09T22:53:06.995Z,11.90
2017-04-09T22:54:05.300Z,11.90
2017-04-09T22:55:03.680Z,12.00
2017-04-09T22:56:01.996Z,12.00
2017-04-09T22:57:00.350Z,12.10
2017-04-09T22:57:58.642Z,12.10
2017-04-09T22:58:56.954Z,12.10
2017-04-09T22:59:55.315Z,12.10
2017-04-09T23:00:53.778Z,12.20
2017-04-09T23:01:52.072Z,12.40
2017-04-09T23:02:50.386Z,12.40
2017-04-09T23:03:48.704Z,12.50
2017-04-09T23:04:46.998Z,12.60
2017-04-09T23:05:45.347Z,12.70
2017-04-09T23:06:43.748Z,12.70
2017-04-09T23:07:42.139Z,12.80
2017-04-09T23:08:40.461Z,12.90
2017-04-09T23:09:38.805Z,12.90
2017-04-09T23:10:37.098Z,13.00
2017-04-09T23:11:35.417Z,13.00
2017-04-09T23:12:33.931Z,13.10
2017-04-09T23:13:32.242Z,13.20
2017-04-09T23:14:30.531Z,13.20
2017-04-09T23:15:28.848Z,13.30
2017-04-09T23:16:27.205Z,13.30
2017-04-09T23:17:25.522Z,13.40
2017-04-09T23:18:23.931Z,13.40
2017-04-09T23:19:22.238Z,13.40
2017-04-09T23:20:20.771Z,13.40
2017-04-09T23:21:19.481Z,13.40
2017-04-09T23:22:17.813Z,13.40
2017-04-09T23:23:16.111Z,13.70
2017-04-09T23:24:14.967Z,13.70
2017-04-09T23:25:13.274Z,13.80
2017-04-09T23:26:11.745Z,13.80
2017-04-09T23:27:10.049Z,13.90
2017-04-09T23:28:08.358Z,13.90
2017-04-09T23:29:06.696Z,13.90
2017-04-09T23:30:05.077Z,13.90
2017-04-09T23:31:03.407Z,13.90
2017-04-09T23:32:01.752Z,13.80
2017-04-09T23:33:00.103Z,13.80
2017-04-09T23:33:58.418Z,13.80
2017-04-09T23:34:56.769Z,13.80
2017-04-09T23:35:55.206Z,13.80
2017-04-09T23:36:53.499Z,13.80
2017-04-09T23:37:51.846Z,13.90
2017-04-09T23:38:50.166Z,13.90
2017-04-09T23:39:48.466Z,13.90
2017-04-09T23:40:46.743Z,13.90
2017-04-09T23:41:45.565Z,13.90
2017-04-09T23:42:43.863Z,13.90
2017-04-09T23:43:42.227Z,13.90
2017-04-09T23:44:40.575Z,13.80
2017-04-09T23:45:38.861Z,13.80
2017-04-09T23:46:37.153Z,13.80
2017-04-09T23:47:35.555Z,13.70
2017-04-09T23:48:33.885Z,13.60
2017-04-09T23:49:32.214Z,13.60
2017-04-09T23:50:30.515Z,13.50
2017-04-09T23:51:28.831Z,13.50
2017-04-09T23:52:27.132Z,13.40
2017-04-09T23:53:25.662Z,13.30
2017-04-09T23:54:24.029Z,13.30
2017-04-09T23:55:22.426Z,13.20
2017-04-09T23:56:20.993Z,13.30
2017-04-09T23:57:19.314Z,13.20
2017-04-09T23:58:17.629Z,13.20
2017-04-09T23:59:16.070Z,13.20
